Flight Track Log - Related Links

Times and Time Zones

All times are in EDT time to prevent confusion due to time zone crossing. See the EGF2976 flight status page for this flight to view local times or setup timezone preferences in your user account.

Time Position Orientation Groundspeed Altitude Reporting Facility
EDT Latitude Longitude Course Direction KTS MPH feet Rate Location/Type
Sun 08:01:06 PM 41.9481 -87.9508 254° West 173 199 2,600  Level Chicago Center
Sun 08:02:08 PM 41.9450 -88.0292 267° West 196 226 3,800 1,161 Climbing Chicago Center
Sun 08:03:10 PM 41.9425 -88.1261 268° West 244 281 5,000 1,452 Climbing Chicago Center
Sun 08:04:12 PM 41.9378 -88.2236 266° West 262 302 6,800 1,968 Climbing Chicago Center
Sun 08:05:00 PM 41.8471 -88.4147 255° West  Level FlightAware Approximate
Sun 08:05:15 PM 41.9314 -88.3436 266° West 271 312 9,100  Level Chicago Center
Sun 08:06:00 PM 41.8230 -88.5304 254° West  Level FlightAware Approximate
Sun 08:06:17 PM 41.9042 -88.4494 251° West 298 343 10,700  Level Chicago Center
Sun 08:07:19 PM 41.8747 -88.5608 250° West 316 364 12,200 1,403 Climbing Chicago Center
Sun 08:08:21 PM 41.8453 -88.6767 251° West 329 379 13,600 1,452 Climbing Chicago Center
Sun 08:09:23 PM 41.8089 -88.8178 251° West 338 389 15,200 1,500 Climbing Chicago Center
Sun 08:10:25 PM 41.7772 -88.9406 251° West 349 402 16,700 1,306 Climbing Chicago Center
Sun 08:11:27 PM 41.7450 -89.0622 250° West 351 404 17,900 1,403 Climbing Chicago Center
Sun 08:12:29 PM 41.7136 -89.1858 251° West 355 409 19,600 1,597 Climbing Chicago Center
Sun 08:13:31 PM 41.6817 -89.3064 251° West 349 402 21,200 1,548 Climbing Chicago Center
Sun 08:14:33 PM 41.6439 -89.4508 251° West 345 397 22,800 1,452 Climbing Chicago Center
Sun 08:15:35 PM 41.6128 -89.5678 250° West 343 395 24,200 1,355 Climbing Chicago Center
Sun 08:16:37 PM 41.5800 -89.6897 250° West 344 396 25,600 1,296 Climbing Chicago Center
Sun 08:17:40 PM 41.5483 -89.8097 251° West 348 400 26,900 1,200 Climbing Chicago Center
Sun 08:18:42 PM 41.5158 -89.9289 250° West 346 398 28,100 1,306 Climbing Chicago Center
Sun 08:19:44 PM 41.4769 -90.0753 251° West 348 400 29,600 1,258 Climbing Chicago Center
Sun 08:20:46 PM 41.4431 -90.1983 250° West 352 405 30,700 1,065 Climbing Chicago Center
Sun 08:21:48 PM 41.4097 -90.3219 250° West 355 409 31,800 1,065 Climbing Chicago Center
Sun 08:22:50 PM 41.3750 -90.4467 250° West 358 412 32,900 1,016 Climbing Chicago Center
Sun 08:23:52 PM 41.3225 -90.5631 239° Southwest 368 423 33,900 968 Climbing Chicago Center
Sun 08:24:54 PM 41.2656 -90.6786 237° Southwest 373 429 34,900 919 Climbing Chicago Center
Sun 08:25:56 PM 41.1986 -90.8172 237° Southwest 375 432 35,800 532 Climbing Chicago Center
Sun 08:26:58 PM 41.1414 -90.9356 237° Southwest 381 438 36,000 97 Climbing Chicago Center
Sun 08:28:00 PM 41.0786 -91.0617 237° Southwest 407 468 36,000  Level Chicago Center
Sun 08:29:02 PM 41.0142 -91.1931 237° Southwest 423 487 36,000  Level Chicago Center
Sun 08:30:04 PM 40.9378 -91.3447 236° Southwest 440 506 36,000  Level Chicago Center
Sun 08:31:06 PM 40.8711 -91.4800 237° Southwest 444 511 36,000  Level Chicago Center
Sun 08:32:08 PM 40.8031 -91.6147 236° Southwest 445 512 36,000  Level Chicago Center
Sun 08:33:10 PM 40.7364 -91.7494 237° Southwest 443 510 36,000 -435 Level Chicago Center
Sun 08:34:12 PM 40.6558 -91.9092 236° Southwest 439 505 35,100 -911 Descending Chicago Center
Sun 08:35:02 PM 40.6014 -92.0144 236° Southwest 439 505 34,300 -589 Descending Kansas City Center
Sun 08:36:04 PM 40.5353 -92.1475 237° Southwest 438 504 34,000 -146 Descending Kansas City Center
Sun 08:37:05 PM 40.4669 -92.2797 236° Southwest 441 507 34,000  Level Kansas City Center
Sun 08:38:07 PM 40.3889 -92.4328 236° Southwest 443 510 34,000  Level Kansas City Center
Sun 08:39:09 PM 40.3264 -92.5544 236° Southwest 445 512 34,000 -98 Level Kansas City Center
Sun 08:40:10 PM 40.2503 -92.7008 236° Southwest 439 505 33,800 -537 Descending Kansas City Center
Sun 08:41:12 PM 40.1831 -92.8289 236° Southwest 444 511 32,900 -968 Descending Kansas City Center
Sun 08:42:14 PM 40.1056 -92.9769 236° Southwest 442 509 31,800 -1,463 Descending Kansas City Center
Sun 08:43:15 PM 40.0342 -93.1136 236° Southwest 445 512 29,900 -2,585 Descending Kansas City Center
Sun 08:44:17 PM 39.9636 -93.2469 235° Southwest 449 517 26,500 -3,290 Descending Kansas City Center
Sun 08:45:19 PM 39.8933 -93.3794 235° Southwest 450 518 23,100 -3,122 Descending Kansas City Center
Sun 08:46:20 PM 39.8231 -93.5094 235° Southwest 446 513 20,100 -1,902 Descending Kansas City Center
Sun 08:47:22 PM 39.7594 -93.6308 236° Southwest 421 484 19,200 -871 Descending Kansas City Center
Sun 08:48:24 PM 39.6953 -93.7511 235° Southwest 368 423 18,300 -2,585 Descending Kansas City Center
Sun 08:49:25 PM 39.6317 -93.8731 236° Southwest 368 423 13,900 -3,366 Descending Kansas City Center
Sun 08:50:27 PM 39.5769 -93.9808 237° Southwest 371 427 11,400 -1,790 Descending Kansas City Center
Sun 08:51:29 PM 39.5428 -94.0817 246° West 325 374 10,200 -1,171 Descending Kansas City Center
Sun 08:52:30 PM 39.5281 -94.1894 260° West 271 312 9,000 -1,268 Descending Kansas City Center
Sun 08:53:32 PM 39.5144 -94.2803 259° West 268 308 7,600 -1,355 Descending Kansas City Center
Sun 08:54:34 PM 39.4992 -94.3822 259° West 258 297 6,200 -1,220 Descending Kansas City Center
Sun 08:55:35 PM 39.4869 -94.4656 259° West 248 285 5,100 -1,073 Descending Kansas City Center
Sun 08:56:37 PM 39.4719 -94.5622 259° West 245 282 4,000 -1,065 Descending Kansas City Center

Login

Don't have an account? Register now (free) for customized features, flight alerts, and more!